createdAt,value
2023-04-13T00:00:21.154Z,0.00
2023-04-13T00:01:21.099Z,0.00
2023-04-13T00:02:21.180Z,0.00
2023-04-13T00:03:21.228Z,0.00
2023-04-13T00:04:21.050Z,0.00
2023-04-13T00:05:21.133Z,0.00
2023-04-13T00:06:21.030Z,0.00
2023-04-13T00:07:21.010Z,0.00
2023-04-13T00:08:20.979Z,0.00
2023-04-13T00:09:20.971Z,0.00
2023-04-13T00:10:20.968Z,0.00
2023-04-13T00:11:20.961Z,0.00
2023-04-13T00:12:20.932Z,0.00
2023-04-13T00:13:20.943Z,0.00
2023-04-13T00:14:20.912Z,0.00
2023-04-13T00:15:20.914Z,0.00
2023-04-13T00:16:20.906Z,0.00
2023-04-13T00:17:20.881Z,0.00
2023-04-13T00:18:20.933Z,0.00
2023-04-13T00:19:20.866Z,0.00
2023-04-13T00:20:20.852Z,0.00
2023-04-13T00:21:20.884Z,0.00
2023-04-13T00:22:20.827Z,0.00
2023-04-13T00:23:20.825Z,0.00
2023-04-13T00:24:20.811Z,0.00
2023-04-13T00:25:20.813Z,0.00
2023-04-13T00:26:20.777Z,0.00
2023-04-13T00:27:20.784Z,0.00
2023-04-13T00:28:20.759Z,0.00
2023-04-13T00:29:20.748Z,0.00
2023-04-13T00:30:20.750Z,0.00
2023-04-13T00:31:20.772Z,0.00
2023-04-13T00:32:20.709Z,0.00
2023-04-13T00:33:20.800Z,0.00
2023-04-13T00:34:20.708Z,0.00
2023-04-13T00:35:20.696Z,0.00
2023-04-13T00:36:20.665Z,0.00
2023-04-13T00:37:20.710Z,0.00
2023-04-13T00:38:20.660Z,0.00
2023-04-13T00:39:20.658Z,0.00
2023-04-13T00:40:20.669Z,0.00
2023-04-13T00:41:20.620Z,0.00
2023-04-13T00:42:20.614Z,0.00
2023-04-13T00:43:20.624Z,0.00
2023-04-13T00:44:20.611Z,0.00
2023-04-13T00:45:20.591Z,0.00
2023-04-13T00:46:20.624Z,0.00
2023-04-13T00:47:20.600Z,0.00
2023-04-13T00:48:20.534Z,0.00
2023-04-13T00:49:20.524Z,0.00
2023-04-13T00:50:20.529Z,0.00
2023-04-13T00:51:20.499Z,0.00
2023-04-13T00:52:20.509Z,0.00
2023-04-13T00:53:20.505Z,0.00
2023-04-13T00:54:20.472Z,0.00
2023-04-13T00:55:20.460Z,0.00
2023-04-13T00:56:20.468Z,0.00
2023-04-13T00:57:20.463Z,0.00
2023-04-13T00:58:20.423Z,0.00
2023-04-13T00:59:20.426Z,0.00
2023-04-13T01:00:20.397Z,0.00
2023-04-13T01:01:20.460Z,0.00
2023-04-13T01:02:20.543Z,0.00
2023-04-13T01:03:20.448Z,0.00
2023-04-13T01:04:20.456Z,0.00
2023-04-13T01:05:20.372Z,0.00
2023-04-13T01:06:20.327Z,0.00
2023-04-13T01:07:20.336Z,0.00
2023-04-13T01:08:20.316Z,0.00
2023-04-13T01:09:20.336Z,0.00
2023-04-13T01:10:20.299Z,0.00
2023-04-13T01:11:20.281Z,0.00
2023-04-13T01:12:20.260Z,0.00
2023-04-13T01:13:20.270Z,0.00
2023-04-13T01:14:20.252Z,0.00
2023-04-13T01:15:20.247Z,0.00
2023-04-13T01:16:20.279Z,0.00
2023-04-13T01:17:41.259Z,0.00
2023-04-13T01:18:20.197Z,0.00
2023-04-13T01:19:47.765Z,0.00
2023-04-13T01:20:20.182Z,0.00
2023-04-13T01:21:20.161Z,0.00
2023-04-13T01:22:20.301Z,0.00
2023-04-13T01:23:20.137Z,0.00
2023-04-13T01:24:20.130Z,0.00
2023-04-13T01:25:20.185Z,0.00
2023-04-13T01:26:20.178Z,0.00
2023-04-13T01:27:20.120Z,0.00
2023-04-13T01:28:20.088Z,0.00
2023-04-13T01:29:20.113Z,0.00
2023-04-13T01:30:20.078Z,0.00
2023-04-13T01:31:20.087Z,0.00
2023-04-13T01:32:20.089Z,0.00
2023-04-13T01:33:20.027Z,0.00
2023-04-13T01:34:20.021Z,0.00
2023-04-13T01:35:20.013Z,0.00
2023-04-13T01:36:20.000Z,0.00
2023-04-13T01:37:20.017Z,0.00
2023-04-13T01:38:19.976Z,0.00
2023-04-13T01:39:19.964Z,0.00
2023-04-13T01:40:19.954Z,0.00
2023-04-13T01:41:19.958Z,0.00
2023-04-13T01:42:19.962Z,0.00
2023-04-13T01:43:19.923Z,0.00
2023-04-13T01:44:19.905Z,0.00
2023-04-13T01:45:19.890Z,0.00
2023-04-13T01:46:20.871Z,0.00
2023-04-13T01:47:19.931Z,0.00
2023-04-13T01:48:19.876Z,0.00
2023-04-13T01:49:19.856Z,0.00
2023-04-13T01:50:19.844Z,0.00
2023-04-13T01:51:19.826Z,0.00
2023-04-13T01:52:19.844Z,0.00
2023-04-13T01:53:19.802Z,0.00
2023-04-13T01:54:19.801Z,0.00
2023-04-13T01:55:19.776Z,0.00
2023-04-13T01:56:19.770Z,0.00
2023-04-13T01:57:19.826Z,0.00
2023-04-13T01:58:19.792Z,0.00
2023-04-13T01:59:19.732Z,0.00
2023-04-13T02:00:19.733Z,0.00
2023-04-13T02:01:19.903Z,0.00
2023-04-13T02:02:19.914Z,0.00
2023-04-13T02:03:19.752Z,0.00
2023-04-13T02:04:19.756Z,0.00
2023-04-13T02:05:19.664Z,0.00
2023-04-13T02:06:19.663Z,0.00
2023-04-13T02:07:19.660Z,0.00
2023-04-13T02:08:19.667Z,0.00
2023-04-13T02:09:19.618Z,0.00
2023-04-13T02:10:19.610Z,0.00
2023-04-13T02:11:19.665Z,0.00
2023-04-13T02:12:19.603Z,0.00
2023-04-13T02:13:19.642Z,0.00
2023-04-13T02:14:19.592Z,0.00
2023-04-13T02:15:19.565Z,0.00
2023-04-13T02:16:19.620Z,0.00
2023-04-13T02:17:19.718Z,0.00
2023-04-13T02:18:19.564Z,0.00
2023-04-13T02:19:19.521Z,0.00
2023-04-13T02:20:19.502Z,0.00
2023-04-13T02:21:19.487Z,0.00
2023-04-13T02:22:19.502Z,0.00
2023-04-13T02:23:19.463Z,0.00
2023-04-13T02:24:19.474Z,0.00
2023-04-13T02:25:19.453Z,0.00
2023-04-13T02:26:19.436Z,0.00
2023-04-13T02:27:19.432Z,0.00
2023-04-13T02:28:19.440Z,0.00
2023-04-13T02:29:19.432Z,0.00
2023-04-13T02:30:19.387Z,0.00
2023-04-13T02:31:19.385Z,0.00
2023-04-13T02:32:19.416Z,0.00
2023-04-13T02:33:19.362Z,0.00
2023-04-13T02:34:19.344Z,0.00
2023-04-13T02:35:19.328Z,0.00
2023-04-13T02:36:19.423Z,0.00
2023-04-13T02:37:19.332Z,0.00
2023-04-13T02:38:19.311Z,0.00
2023-04-13T02:39:19.296Z,0.00
2023-04-13T02:40:19.287Z,0.00
2023-04-13T02:41:19.273Z,0.00
2023-04-13T02:42:19.270Z,0.00
2023-04-13T02:43:19.242Z,0.00
2023-04-13T02:44:19.232Z,0.00
2023-04-13T02:45:19.244Z,0.00
2023-04-13T02:46:19.287Z,0.00
2023-04-13T02:47:19.227Z,0.00
2023-04-13T02:48:19.249Z,0.00
2023-04-13T02:49:19.167Z,0.00
2023-04-13T02:50:19.163Z,0.00
2023-04-13T02:51:19.148Z,0.00
2023-04-13T02:52:19.178Z,0.00
2023-04-13T02:53:19.122Z,0.00
2023-04-13T02:54:19.119Z,0.00
2023-04-13T02:55:19.122Z,0.00
2023-04-13T02:56:19.123Z,0.00
2023-04-13T02:57:19.094Z,0.00
2023-04-13T02:58:19.102Z,0.00
2023-04-13T02:59:19.157Z,0.00
2023-04-13T03:00:19.057Z,0.00
2023-04-13T03:01:19.143Z,0.00
2023-04-13T03:02:19.090Z,0.00
2023-04-13T03:03:19.084Z,0.00
2023-04-13T03:04:19.038Z,0.00
2023-04-13T03:05:19.002Z,0.00
2023-04-13T03:06:19.000Z,0.00
2023-04-13T03:07:18.976Z,0.00
2023-04-13T03:08:19.014Z,0.00
2023-04-13T03:09:18.943Z,0.00
2023-04-13T03:10:18.971Z,0.00
2023-04-13T03:11:18.949Z,0.00
2023-04-13T03:12:18.915Z,0.00
2023-04-13T03:13:18.928Z,0.00
2023-04-13T03:14:18.901Z,0.00
2023-04-13T03:15:18.874Z,0.00
2023-04-13T03:16:18.944Z,0.00
2023-04-13T03:17:19.876Z,0.00
2023-04-13T03:18:18.892Z,0.00
2023-04-13T03:19:18.843Z,0.00
2023-04-13T03:20:18.830Z,0.00
2023-04-13T03:21:18.814Z,0.00
2023-04-13T03:22:18.802Z,0.00
2023-04-13T03:23:18.817Z,0.00
2023-04-13T03:24:18.809Z,0.00
2023-04-13T03:25:18.794Z,0.00
2023-04-13T03:26:18.780Z,0.00
2023-04-13T03:27:18.816Z,0.00
2023-04-13T03:28:18.870Z,0.00
2023-04-13T03:29:18.731Z,0.00
2023-04-13T03:30:18.826Z,0.00
2023-04-13T03:31:18.740Z,0.00
2023-04-13T03:32:18.760Z,0.00
2023-04-13T03:33:18.738Z,0.00
2023-04-13T03:34:18.688Z,0.00
2023-04-13T03:35:18.652Z,0.00
2023-04-13T03:36:18.679Z,0.00
2023-04-13T03:37:18.644Z,0.00
2023-04-13T03:38:18.640Z,0.00
2023-04-13T03:39:18.609Z,0.00
2023-04-13T03:40:18.613Z,0.00
2023-04-13T03:41:18.602Z,0.00
2023-04-13T03:42:18.610Z,0.00
2023-04-13T03:43:18.589Z,0.00
2023-04-13T03:44:18.561Z,0.00
2023-04-13T03:45:18.540Z,0.00
2023-04-13T03:46:18.586Z,0.00
2023-04-13T03:47:18.581Z,0.00
2023-04-13T03:48:18.524Z,0.00
2023-04-13T03:49:18.524Z,0.00
2023-04-13T03:50:18.488Z,0.00
2023-04-13T03:51:18.505Z,0.00
2023-04-13T03:52:18.478Z,0.00
2023-04-13T03:53:18.472Z,0.00
2023-04-13T03:54:18.456Z,0.00
2023-04-13T03:55:18.451Z,0.00
2023-04-13T03:56:18.434Z,0.00
2023-04-13T03:57:18.426Z,0.00
2023-04-13T03:58:18.414Z,0.00
2023-04-13T03:59:18.386Z,0.00
2023-04-13T04:00:18.374Z,0.00
2023-04-13T04:01:18.391Z,0.00
2023-04-13T04:02:18.504Z,0.00
2023-04-13T04:03:18.426Z,0.00
2023-04-13T04:04:18.403Z,0.00
2023-04-13T04:05:18.476Z,0.00
2023-04-13T04:06:18.336Z,0.00
2023-04-13T04:07:18.311Z,0.00
2023-04-13T04:08:18.296Z,0.00
2023-04-13T04:09:18.271Z,0.00
2023-04-13T04:10:18.260Z,0.00
2023-04-13T04:11:18.266Z,0.00
2023-04-13T04:12:18.272Z,0.00
2023-04-13T04:13:18.261Z,0.00
2023-04-13T04:14:18.226Z,0.00
2023-04-13T04:15:18.237Z,0.00
2023-04-13T04:16:18.252Z,0.00
2023-04-13T04:17:18.191Z,0.00
2023-04-13T04:18:18.201Z,0.00
2023-04-13T04:19:18.154Z,0.00
2023-04-13T04:20:18.188Z,0.00
2023-04-13T04:21:18.155Z,0.00
2023-04-13T04:22:18.137Z,0.00
2023-04-13T04:23:19.765Z,0.00
2023-04-13T04:24:18.117Z,0.00
2023-04-13T04:25:18.085Z,4.00
2023-04-13T04:26:18.110Z,4.00
2023-04-13T04:27:18.063Z,4.00
2023-04-13T04:28:18.249Z,0.00
2023-04-13T04:29:18.043Z,0.00
2023-04-13T04:30:18.033Z,4.00
2023-04-13T04:31:18.095Z,4.00
2023-04-13T04:32:18.011Z,4.00
2023-04-13T04:33:18.035Z,4.00
2023-04-13T04:34:18.004Z,4.00
2023-04-13T04:35:17.970Z,4.00
2023-04-13T04:36:17.981Z,4.00
2023-04-13T04:37:20.974Z,8.00
2023-04-13T04:38:17.960Z,8.00
2023-04-13T04:39:17.952Z,12.00
2023-04-13T04:40:17.942Z,12.00
2023-04-13T04:41:17.924Z,12.00
2023-04-13T04:42:17.934Z,12.00
2023-04-13T04:43:17.921Z,12.00
2023-04-13T04:44:17.898Z,16.00
2023-04-13T04:45:17.896Z,16.00
2023-04-13T04:46:17.893Z,20.00
2023-04-13T04:47:17.841Z,20.00
2023-04-13T04:48:17.865Z,24.00
2023-04-13T04:49:17.843Z,28.00
2023-04-13T04:50:17.862Z,32.00
2023-04-13T04:51:17.806Z,36.00
2023-04-13T04:52:17.801Z,40.00
2023-04-13T04:53:17.821Z,52.00
2023-04-13T04:54:17.788Z,60.00
2023-04-13T04:55:17.764Z,60.00
2023-04-13T04:56:17.751Z,52.00
2023-04-13T04:57:17.740Z,60.00
2023-04-13T04:58:17.736Z,72.00
2023-04-13T04:59:17.735Z,72.00
2023-04-13T05:00:17.714Z,80.00
2023-04-13T05:01:17.725Z,84.00
2023-04-13T05:02:17.882Z,108.00
2023-04-13T05:03:17.711Z,144.00
2023-04-13T05:04:17.681Z,156.00
2023-04-13T05:05:17.691Z,148.00
2023-04-13T05:06:17.651Z,124.00
2023-04-13T05:07:17.659Z,148.00
2023-04-13T05:08:17.610Z,188.00
2023-04-13T05:09:17.632Z,152.00
2023-04-13T05:10:17.610Z,180.00
2023-04-13T05:11:17.589Z,188.00
2023-04-13T05:12:17.581Z,208.00
2023-04-13T05:13:17.581Z,216.00
2023-04-13T05:14:17.573Z,220.00
2023-04-13T05:15:17.549Z,220.00
2023-04-13T05:16:17.610Z,224.00
2023-04-13T05:17:17.531Z,232.00
2023-04-13T05:18:17.510Z,288.00
2023-04-13T05:19:17.877Z,284.00
2023-04-13T05:20:17.491Z,232.00
2023-04-13T05:21:17.476Z,280.00
2023-04-13T05:22:17.490Z,356.00
2023-04-13T05:23:17.457Z,432.00
2023-04-13T05:24:17.451Z,496.00
2023-04-13T05:25:17.452Z,548.00
2023-04-13T05:26:17.423Z,468.00
2023-04-13T05:27:17.466Z,368.00
2023-04-13T05:28:17.395Z,324.00
2023-04-13T05:29:17.393Z,344.00
2023-04-13T05:30:17.362Z,412.00
2023-04-13T05:31:17.373Z,476.00
2023-04-13T05:32:17.378Z,540.00
2023-04-13T05:33:17.357Z,656.00
2023-04-13T05:34:17.359Z,772.00
2023-04-13T05:35:17.341Z,748.00
2023-04-13T05:36:17.313Z,724.00
2023-04-13T05:37:17.567Z,752.00
2023-04-13T05:38:17.272Z,784.00
2023-04-13T05:39:17.285Z,888.00
2023-04-13T05:40:17.264Z,720.00
2023-04-13T05:41:17.261Z,800.00
2023-04-13T05:42:17.237Z,992.00
2023-04-13T05:43:17.233Z,1092.00
2023-04-13T05:44:17.241Z,1104.00
2023-04-13T05:45:17.440Z,848.00
2023-04-13T05:46:17.222Z,660.00
2023-04-13T05:47:17.194Z,752.00
2023-04-13T05:48:17.164Z,744.00
2023-04-13T05:49:17.170Z,588.00
2023-04-13T05:50:17.132Z,592.00
2023-04-13T05:51:17.127Z,688.00
2023-04-13T05:52:17.126Z,684.00
2023-04-13T05:53:17.106Z,616.00
2023-04-13T05:54:17.139Z,536.00
2023-04-13T05:55:17.094Z,596.00
2023-04-13T05:56:17.086Z,612.00
2023-04-13T05:57:17.097Z,576.00
2023-04-13T05:58:17.051Z,592.00
2023-04-13T05:59:17.039Z,628.00
2023-04-13T06:00:17.035Z,652.00
2023-04-13T06:01:17.045Z,572.00
2023-04-13T06:02:17.152Z,568.00
2023-04-13T06:03:17.243Z,608.00
2023-04-13T06:04:17.255Z,640.00
2023-04-13T06:05:17.027Z,676.00
2023-04-13T06:06:16.968Z,728.00
2023-04-13T06:07:16.950Z,760.00
2023-04-13T06:08:17.070Z,620.00
2023-04-13T06:09:16.958Z,588.00
2023-04-13T06:10:16.965Z,564.00
2023-04-13T06:11:16.923Z,516.00
2023-04-13T06:12:16.907Z,524.00
2023-04-13T06:13:16.986Z,532.00
2023-04-13T06:14:16.889Z,472.00
2023-04-13T06:15:16.872Z,464.00
2023-04-13T06:16:16.934Z,572.00
2023-04-13T06:17:16.976Z,652.00
2023-04-13T06:18:16.846Z,652.00
2023-04-13T06:19:16.833Z,844.00
2023-04-13T06:20:16.807Z,1236.00
2023-04-13T06:21:16.800Z,1412.00
2023-04-13T06:22:16.900Z,1600.00
2023-04-13T06:23:16.778Z,1516.00
2023-04-13T06:24:16.748Z,1220.00
2023-04-13T06:25:16.851Z,1184.00
2023-04-13T06:26:16.738Z,1152.00
2023-04-13T06:27:16.735Z,1048.00
2023-04-13T06:28:16.725Z,864.00
2023-04-13T06:29:16.750Z,780.00
2023-04-13T06:30:16.847Z,700.00
2023-04-13T06:31:16.801Z,692.00
2023-04-13T06:32:16.723Z,688.00
2023-04-13T06:33:16.676Z,672.00
2023-04-13T06:34:16.650Z,608.00
2023-04-13T06:35:16.637Z,656.00
2023-04-13T06:36:16.612Z,700.00
2023-04-13T06:37:16.616Z,740.00
2023-04-13T06:38:16.604Z,828.00
2023-04-13T06:39:16.605Z,788.00
2023-04-13T06:40:16.582Z,844.00
2023-04-13T06:41:16.564Z,900.00
2023-04-13T06:42:16.802Z,960.00
2023-04-13T06:43:29.206Z,1064.00
2023-04-13T06:44:18.864Z,1392.00
2023-04-13T06:45:16.561Z,1628.00
2023-04-13T06:46:19.099Z,1528.00
2023-04-13T06:47:16.598Z,1428.00
2023-04-13T06:48:16.481Z,1480.00
2023-04-13T06:49:16.557Z,1912.00
2023-04-13T06:50:16.459Z,2212.00
2023-04-13T06:51:16.463Z,2400.00
2023-04-13T06:52:16.445Z,2228.00
2023-04-13T06:53:16.432Z,2788.00
2023-04-13T06:54:16.479Z,3216.00
2023-04-13T06:55:16.423Z,3212.00
2023-04-13T06:56:16.393Z,3436.00
2023-04-13T06:57:16.398Z,4080.00
2023-04-13T06:58:16.394Z,4180.00
2023-04-13T06:59:16.445Z,4396.00
2023-04-13T07:00:28.774Z,4760.00
2023-04-13T07:01:17.459Z,5236.00
2023-04-13T07:02:16.402Z,6212.00
2023-04-13T07:03:16.488Z,6848.00
2023-04-13T07:04:16.412Z,6788.00
2023-04-13T07:05:16.367Z,6716.00
2023-04-13T07:06:16.291Z,6240.00
2023-04-13T07:07:16.282Z,6744.00
2023-04-13T07:08:16.254Z,6228.00
2023-04-13T07:09:16.298Z,7020.00
2023-04-13T07:10:16.238Z,6872.00
2023-04-13T07:11:16.241Z,6252.00
2023-04-13T07:12:16.224Z,5408.00
2023-04-13T07:13:16.229Z,5132.00
2023-04-13T07:14:16.219Z,4204.00
2023-04-13T07:15:16.186Z,4600.00
2023-04-13T07:16:16.306Z,5372.00
2023-04-13T07:17:16.337Z,5124.00
2023-04-13T07:18:16.143Z,5476.00
2023-04-13T07:19:16.212Z,7712.00
2023-04-13T07:20:16.144Z,8004.00
2023-04-13T07:21:16.138Z,6156.00
2023-04-13T07:22:16.114Z,4856.00
2023-04-13T07:23:16.109Z,4612.00
2023-04-13T07:24:16.114Z,4752.00
2023-04-13T07:25:16.580Z,4560.00
2023-04-13T07:26:16.062Z,4264.00
2023-04-13T07:27:16.049Z,3992.00
2023-04-13T07:28:16.033Z,3536.00
2023-04-13T07:29:16.055Z,4180.00
2023-04-13T07:30:16.025Z,4172.00
2023-04-13T07:31:16.016Z,5248.00
2023-04-13T07:32:15.997Z,4504.00
2023-04-13T07:33:16.070Z,6492.00
2023-04-13T07:34:15.991Z,8380.00
2023-04-13T07:35:15.969Z,8184.00
2023-04-13T07:36:15.945Z,7812.00
2023-04-13T07:37:15.952Z,7336.00
2023-04-13T07:38:15.943Z,7028.00
2023-04-13T07:39:15.980Z,5640.00
2023-04-13T07:40:15.899Z,5904.00
2023-04-13T07:41:15.887Z,5396.00
2023-04-13T07:42:15.875Z,6944.00
2023-04-13T07:43:15.881Z,7792.00
2023-04-13T07:44:15.882Z,5376.00
2023-04-13T07:45:15.920Z,5576.00
2023-04-13T07:46:15.914Z,5836.00
2023-04-13T07:47:15.827Z,7380.00
2023-04-13T07:48:15.818Z,6948.00
2023-04-13T07:49:15.879Z,5396.00
2023-04-13T07:50:15.784Z,3980.00
2023-04-13T07:51:15.774Z,2776.00
2023-04-13T07:52:15.760Z,2648.00
2023-04-13T07:53:15.758Z,2996.00
2023-04-13T07:54:16.810Z,3044.00
2023-04-13T07:55:15.734Z,2992.00
2023-04-13T07:56:15.738Z,3668.00
2023-04-13T07:57:15.713Z,4876.00
2023-04-13T07:58:15.706Z,4280.00
2023-04-13T07:59:15.715Z,3256.00
2023-04-13T08:00:15.667Z,4316.00
2023-04-13T08:01:15.676Z,4064.00
2023-04-13T08:02:15.688Z,2448.00
2023-04-13T08:03:15.784Z,2636.00
2023-04-13T08:04:15.898Z,2240.00
2023-04-13T08:05:15.908Z,2108.00
2023-04-13T08:06:15.619Z,2656.00
2023-04-13T08:07:15.628Z,2476.00
2023-04-13T08:08:15.597Z,2128.00
2023-04-13T08:09:15.597Z,1944.00
2023-04-13T08:10:15.569Z,1964.00
2023-04-13T08:11:15.552Z,1784.00
2023-04-13T08:12:15.553Z,1952.00
2023-04-13T08:13:15.545Z,1996.00
2023-04-13T08:14:15.544Z,2224.00
2023-04-13T08:15:15.518Z,2332.00
2023-04-13T08:16:15.532Z,2276.00
2023-04-13T08:17:15.525Z,2320.00
2023-04-13T08:18:15.480Z,2632.00
2023-04-13T08:19:15.477Z,2852.00
2023-04-13T08:20:15.471Z,2700.00
2023-04-13T08:21:15.463Z,2600.00
2023-04-13T08:22:15.444Z,3004.00
2023-04-13T08:23:15.429Z,3064.00
2023-04-13T08:24:15.425Z,3384.00
2023-04-13T08:25:15.418Z,3196.00
2023-04-13T08:26:15.408Z,2940.00
2023-04-13T08:27:15.389Z,2872.00
2023-04-13T08:28:15.376Z,2868.00
2023-04-13T08:29:15.476Z,2924.00
2023-04-13T08:30:15.366Z,3268.00
2023-04-13T08:31:15.330Z,3212.00
2023-04-13T08:32:15.529Z,2844.00
2023-04-13T08:33:15.319Z,2448.00
2023-04-13T08:34:15.315Z,2380.00
2023-04-13T08:35:15.326Z,2340.00
2023-04-13T08:36:15.269Z,2460.00
2023-04-13T08:37:15.310Z,2188.00
2023-04-13T08:38:15.255Z,1792.00
2023-04-13T08:39:15.250Z,1596.00
2023-04-13T08:40:15.257Z,1552.00
2023-04-13T08:41:15.233Z,1800.00
2023-04-13T08:42:15.218Z,2208.00
2023-04-13T08:43:15.213Z,2440.00
2023-04-13T08:44:15.196Z,3072.00
2023-04-13T08:45:15.186Z,3028.00
2023-04-13T08:46:15.179Z,2352.00
2023-04-13T08:47:15.163Z,2152.00
2023-04-13T08:48:15.194Z,1980.00
2023-04-13T08:49:15.139Z,1964.00
2023-04-13T08:50:15.137Z,1832.00
2023-04-13T08:51:15.105Z,1480.00
2023-04-13T08:52:16.886Z,1664.00
2023-04-13T08:53:15.609Z,1572.00
2023-04-13T08:54:15.077Z,1292.00
2023-04-13T08:55:15.090Z,1296.00
2023-04-13T08:56:15.061Z,1576.00
2023-04-13T08:57:15.039Z,1720.00
2023-04-13T08:58:15.038Z,1568.00
2023-04-13T08:59:15.061Z,2004.00
2023-04-13T09:00:15.028Z,2676.00
2023-04-13T09:01:15.047Z,2232.00
2023-04-13T09:02:15.055Z,2072.00
2023-04-13T09:03:15.093Z,1960.00
2023-04-13T09:04:15.206Z,1780.00
2023-04-13T09:05:15.130Z,1776.00
2023-04-13T09:06:14.967Z,1712.00
2023-04-13T09:07:14.920Z,2268.00
2023-04-13T09:08:14.919Z,2884.00
2023-04-13T09:09:14.994Z,2956.00
2023-04-13T09:10:14.917Z,2960.00
2023-04-13T09:11:14.878Z,2724.00
2023-04-13T09:12:14.874Z,2512.00
2023-04-13T09:13:14.862Z,2568.00
2023-04-13T09:14:14.893Z,2856.00
2023-04-13T09:15:14.849Z,3036.00
2023-04-13T09:16:14.814Z,2924.00
2023-04-13T09:17:14.855Z,2468.00
2023-04-13T09:18:14.937Z,2304.00
2023-04-13T09:19:14.788Z,2080.00
2023-04-13T09:20:14.822Z,1920.00
2023-04-13T09:21:14.785Z,1956.00
2023-04-13T09:22:14.751Z,2052.00
2023-04-13T09:23:14.794Z,1916.00
2023-04-13T09:24:14.740Z,1972.00
2023-04-13T09:25:14.835Z,2224.00
2023-04-13T09:26:14.773Z,2232.00
2023-04-13T09:27:14.699Z,2188.00
2023-04-13T09:28:14.683Z,2428.00
2023-04-13T09:29:14.770Z,2708.00
2023-04-13T09:30:14.693Z,2760.00
2023-04-13T09:31:14.699Z,3096.00
2023-04-13T09:32:14.650Z,3152.00
2023-04-13T09:33:14.632Z,2684.00
2023-04-13T09:34:14.618Z,2872.00
2023-04-13T09:35:14.633Z,2876.00
2023-04-13T09:36:14.593Z,2712.00
2023-04-13T09:37:14.601Z,3196.00
2023-04-13T09:38:14.587Z,3492.00
2023-04-13T09:39:14.590Z,3924.00
2023-04-13T09:40:14.627Z,4936.00
2023-04-13T09:41:14.615Z,3728.00
2023-04-13T09:42:14.552Z,3756.00
2023-04-13T09:43:14.538Z,3668.00
2023-04-13T09:44:14.514Z,3152.00
2023-04-13T09:45:14.545Z,2560.00
2023-04-13T09:46:14.562Z,2176.00
2023-04-13T09:47:14.483Z,2012.00
2023-04-13T09:48:14.465Z,1904.00
2023-04-13T09:49:14.476Z,1700.00
2023-04-13T09:50:14.508Z,1744.00
2023-04-13T09:51:14.441Z,2040.00
2023-04-13T09:52:14.433Z,2588.00
2023-04-13T09:53:14.425Z,2888.00
2023-04-13T09:54:14.411Z,2896.00
2023-04-13T09:55:14.419Z,2760.00
2023-04-13T09:56:14.394Z,2976.00
2023-04-13T09:57:14.403Z,3024.00
2023-04-13T09:58:14.365Z,2988.00
2023-04-13T09:59:14.360Z,3096.00
2023-04-13T10:00:14.377Z,3416.00
2023-04-13T10:01:14.357Z,3660.00
2023-04-13T10:02:14.402Z,3388.00
2023-04-13T10:03:14.408Z,3184.00
2023-04-13T10:04:14.326Z,2976.00
2023-04-13T10:05:14.386Z,2696.00
2023-04-13T10:06:14.263Z,2648.00
2023-04-13T10:07:14.250Z,2388.00
2023-04-13T10:08:16.424Z,2132.00
2023-04-13T10:09:14.224Z,1968.00
2023-04-13T10:10:14.289Z,1836.00
2023-04-13T10:11:14.220Z,1808.00
2023-04-13T10:12:14.209Z,2040.00
2023-04-13T10:13:21.580Z,2416.00
2023-04-13T10:14:15.177Z,2468.00
2023-04-13T10:15:14.178Z,2544.00
2023-04-13T10:16:14.175Z,2440.00
2023-04-13T10:17:14.166Z,2488.00
2023-04-13T10:18:14.216Z,2752.00
2023-04-13T10:19:14.111Z,3204.00
2023-04-13T10:20:14.134Z,3840.00
2023-04-13T10:21:14.103Z,3928.00
2023-04-13T10:22:14.084Z,4660.00
2023-04-13T10:23:14.071Z,7272.00
2023-04-13T10:24:14.078Z,13180.00
2023-04-13T10:25:25.229Z,13464.00
2023-04-13T10:26:15.056Z,14508.00
2023-04-13T10:27:14.037Z,11956.00
2023-04-13T10:28:14.026Z,8288.00
2023-04-13T10:29:14.051Z,10040.00
2023-04-13T10:30:14.013Z,11680.00
2023-04-13T10:31:14.062Z,18304.00
2023-04-13T10:32:13.979Z,18432.00
2023-04-13T10:33:13.974Z,18240.00
2023-04-13T10:34:14.049Z,23744.00
2023-04-13T10:35:13.947Z,39808.00
2023-04-13T10:36:13.949Z,54336.00
2023-04-13T10:37:13.936Z,34560.00
2023-04-13T10:38:13.915Z,40992.00
2023-04-13T10:39:13.888Z,13180.00
2023-04-13T10:40:13.891Z,9300.00
2023-04-13T10:41:13.886Z,32672.00
2023-04-13T10:42:15.410Z,60448.00
2023-04-13T10:43:13.857Z,45248.00
2023-04-13T10:44:13.845Z,21536.00
2023-04-13T10:45:13.838Z,17056.00
2023-04-13T10:46:14.050Z,12168.00
2023-04-13T10:47:13.903Z,8880.00
2023-04-13T10:48:13.839Z,9572.00
2023-04-13T10:49:13.777Z,11192.00
2023-04-13T10:50:13.778Z,9328.00
2023-04-13T10:51:13.755Z,6336.00
2023-04-13T10:52:13.773Z,4884.00
2023-04-13T10:53:13.745Z,3600.00
2023-04-13T10:54:13.735Z,2772.00
2023-04-13T10:55:13.728Z,2200.00
2023-04-13T10:56:13.713Z,1852.00
2023-04-13T10:57:13.741Z,1828.00
2023-04-13T10:58:13.700Z,2328.00
2023-04-13T10:59:13.668Z,3012.00
2023-04-13T11:00:13.656Z,3732.00
2023-04-13T11:01:13.742Z,4668.00
2023-04-13T11:02:13.747Z,7148.00
2023-04-13T11:03:13.816Z,8480.00
2023-04-13T11:04:16.897Z,10792.00
2023-04-13T11:05:13.611Z,9972.00
2023-04-13T11:06:13.858Z,9400.00
2023-04-13T11:07:13.580Z,9080.00
2023-04-13T11:08:13.580Z,9640.00
2023-04-13T11:09:16.598Z,9984.00
2023-04-13T11:10:13.567Z,8732.00
2023-04-13T11:11:15.158Z,8564.00
2023-04-13T11:12:13.557Z,8608.00
2023-04-13T11:13:13.521Z,7948.00
2023-04-13T11:14:13.512Z,8500.00
2023-04-13T11:15:13.741Z,7660.00
2023-04-13T11:16:13.532Z,6788.00
2023-04-13T11:17:13.728Z,5180.00
2023-04-13T11:18:13.509Z,5012.00
2023-04-13T11:19:13.464Z,6000.00
2023-04-13T11:20:13.507Z,5176.00
2023-04-13T11:21:13.437Z,5420.00
2023-04-13T11:22:13.575Z,4852.00
2023-04-13T11:23:13.412Z,5332.00
2023-04-13T11:24:13.386Z,4628.00
2023-04-13T11:25:13.376Z,4696.00
2023-04-13T11:26:13.380Z,3800.00
2023-04-13T11:27:13.367Z,2416.00
2023-04-13T11:28:13.385Z,1640.00
2023-04-13T11:29:13.331Z,1772.00
2023-04-13T11:30:13.403Z,1924.00
2023-04-13T11:31:13.332Z,1880.00
2023-04-13T11:32:13.409Z,1888.00
2023-04-13T11:33:13.476Z,1832.00
2023-04-13T11:34:13.298Z,1892.00
2023-04-13T11:35:13.272Z,2220.00
2023-04-13T11:36:13.298Z,2640.00
2023-04-13T11:37:13.255Z,3180.00
2023-04-13T11:38:13.237Z,3416.00
2023-04-13T11:39:13.214Z,3660.00
2023-04-13T11:40:13.253Z,3620.00
2023-04-13T11:41:17.019Z,3332.00
2023-04-13T11:42:13.191Z,3112.00
2023-04-13T11:43:13.187Z,3012.00
2023-04-13T11:44:13.163Z,3460.00
2023-04-13T11:45:13.161Z,4252.00
2023-04-13T11:46:13.216Z,4584.00
2023-04-13T11:47:13.167Z,4804.00
2023-04-13T11:48:13.137Z,5140.00
2023-04-13T11:49:13.158Z,5604.00
2023-04-13T11:50:15.325Z,5904.00
2023-04-13T11:51:13.106Z,6168.00
2023-04-13T11:52:13.086Z,6864.00
2023-04-13T11:53:13.070Z,7252.00
2023-04-13T11:54:13.049Z,7068.00
2023-04-13T11:55:22.498Z,6564.00
2023-04-13T11:56:14.072Z,6408.00
2023-04-13T11:57:13.061Z,6432.00
2023-04-13T11:58:13.021Z,8000.00
2023-04-13T11:59:13.022Z,7296.00
2023-04-13T12:00:12.997Z,7132.00
2023-04-13T12:01:15.381Z,6540.00
2023-04-13T12:02:21.778Z,6024.00
2023-04-13T12:03:34.430Z,5916.00
2023-04-13T12:04:16.328Z,6212.00
2023-04-13T12:05:13.173Z,6236.00
2023-04-13T12:06:13.537Z,6352.00
2023-04-13T12:07:14.067Z,5620.00
2023-04-13T12:08:13.418Z,5472.00
2023-04-13T12:09:15.744Z,5784.00
2023-04-13T12:11:38.974Z,6272.00
2023-04-13T12:14:17.797Z,6152.00
2023-04-13T12:15:29.969Z,5868.00
2023-04-13T12:17:37.559Z,6416.00
2023-04-13T12:18:15.831Z,6236.00
2023-04-13T12:19:14.050Z,5972.00
2023-04-13T12:20:12.846Z,5708.00
2023-04-13T12:21:13.457Z,5712.00
2023-04-13T12:22:14.311Z,5620.00
2023-04-13T12:23:21.928Z,4600.00
2023-04-13T12:24:15.395Z,3820.00
2023-04-13T12:25:14.453Z,3376.00
2023-04-13T12:28:12.685Z,5116.00
2023-04-13T12:29:12.663Z,3840.00
2023-04-13T12:30:12.683Z,4036.00
2023-04-13T12:31:12.754Z,4612.00
2023-04-13T12:32:12.621Z,4692.00
2023-04-13T12:33:12.617Z,6388.00
2023-04-13T12:34:12.597Z,7372.00
2023-04-13T12:35:12.601Z,7348.00
2023-04-13T12:36:12.613Z,5104.00
2023-04-13T12:37:12.592Z,4296.00
2023-04-13T12:38:12.564Z,6028.00
2023-04-13T12:39:12.569Z,6572.00
2023-04-13T12:40:12.554Z,5960.00